sensor_id;sensor_type;location;lat;lon;timestamp;pressure;altitude;pressure_sealevel;temperature;humidity
70506;BME280;58032;49.820;6.274;2024-03-07T00:00:06;98234.97;;;7.16;100.00
70506;BME280;58032;49.820;6.274;2024-03-07T00:02:42;98240.91;;;7.21;100.00
70506;BME280;58032;49.820;6.274;2024-03-07T00:05:10;98233.81;;;7.13;100.00
70506;BME280;58032;49.820;6.274;2024-03-07T00:07:37;98237.38;;;7.13;100.00
70506;BME280;58032;49.820;6.274;2024-03-07T00:10:04;98236.97;;;7.15;100.00
70506;BME280;58032;49.820;6.274;2024-03-07T00:12:34;98241.75;;;6.84;100.00
70506;BME280;58032;49.820;6.274;2024-03-07T00:15:03;98238.03;;;6.94;100.00
70506;BME280;58032;49.820;6.274;2024-03-07T00:17:30;98238.66;;;6.78;100.00
70506;BME280;58032;49.820;6.274;2024-03-07T00:19:58;98232.97;;;6.85;100.00
70506;BME280;58032;49.820;6.274;2024-03-07T00:22:25;98240.25;;;6.75;100.00
70506;BME280;58032;49.820;6.274;2024-03-07T00:24:53;98241.41;;;6.81;100.00
70506;BME280;58032;49.820;6.274;2024-03-07T00:27:21;98237.56;;;6.64;100.00
70506;BME280;58032;49.820;6.274;2024-03-07T00:29:48;98241.25;;;6.58;100.00
70506;BME280;58032;49.820;6.274;2024-03-07T00:32:20;98240.06;;;6.90;100.00
70506;BME280;58032;49.820;6.274;2024-03-07T00:34:48;98240.44;;;6.57;100.00
70506;BME280;58032;49.820;6.274;2024-03-07T00:37:18;98238.19;;;6.45;100.00
70506;BME280;58032;49.820;6.274;2024-03-07T00:39:45;98248.19;;;6.46;100.00
70506;BME280;58032;49.820;6.274;2024-03-07T00:42:12;98245.47;;;6.39;100.00
70506;BME280;58032;49.820;6.274;2024-03-07T00:44:39;98235.06;;;6.39;100.00
70506;BME280;58032;49.820;6.274;2024-03-07T00:47:06;98236.56;;;6.47;100.00
70506;BME280;58032;49.820;6.274;2024-03-07T00:49:34;98243.66;;;6.17;100.00
70506;BME280;58032;49.820;6.274;2024-03-07T00:52:01;98240.97;;;6.48;100.00
70506;BME280;58032;49.820;6.274;2024-03-07T00:54:28;98235.41;;;6.45;100.00
70506;BME280;58032;49.820;6.274;2024-03-07T00:56:55;98247.38;;;6.45;100.00
70506;BME280;58032;49.820;6.274;2024-03-07T00:59:22;98235.25;;;6.59;100.00
70506;BME280;58032;49.820;6.274;2024-03-07T01:01:50;98238.16;;;6.48;100.00
70506;BME280;58032;49.820;6.274;2024-03-07T01:04:17;98235.75;;;6.51;100.00
70506;BME280;58032;49.820;6.274;2024-03-07T01:06:44;98238.91;;;6.53;100.00
70506;BME280;58032;49.820;6.274;2024-03-07T01:09:11;98231.88;;;6.37;100.00
70506;BME280;58032;49.820;6.274;2024-03-07T01:11:45;98236.53;;;6.51;100.00
70506;BME280;58032;49.820;6.274;2024-03-07T01:14:12;98236.63;;;6.40;100.00
70506;BME280;58032;49.820;6.274;2024-03-07T01:16:40;98229.81;;;6.79;100.00
70506;BME280;58032;49.820;6.274;2024-03-07T01:19:08;98226.81;;;6.63;100.00
70506;BME280;58032;49.820;6.274;2024-03-07T01:21:37;98224.78;;;6.63;100.00
70506;BME280;58032;49.820;6.274;2024-03-07T01:24:05;98225.41;;;6.44;100.00
70506;BME280;58032;49.820;6.274;2024-03-07T01:26:32;98220.47;;;6.59;100.00
70506;BME280;58032;49.820;6.274;2024-03-07T01:29:02;98229.13;;;6.68;100.00
70506;BME280;58032;49.820;6.274;2024-03-07T01:31:29;98213.31;;;6.54;100.00
70506;BME280;58032;49.820;6.274;2024-03-07T01:33:56;98211.81;;;6.46;100.00
70506;BME280;58032;49.820;6.274;2024-03-07T01:36:23;98213.13;;;6.72;100.00
70506;BME280;58032;49.820;6.274;2024-03-07T01:38:51;98213.59;;;6.63;100.00
70506;BME280;58032;49.820;6.274;2024-03-07T01:41:18;98212.69;;;6.74;100.00
70506;BME280;58032;49.820;6.274;2024-03-07T01:43:46;98206.97;;;6.50;100.00
70506;BME280;58032;49.820;6.274;2024-03-07T01:46:13;98214.31;;;6.37;100.00
70506;BME280;58032;49.820;6.274;2024-03-07T01:48:40;98214.94;;;6.52;100.00
70506;BME280;58032;49.820;6.274;2024-03-07T01:51:08;98215.16;;;6.30;100.00
70506;BME280;58032;49.820;6.274;2024-03-07T01:53:35;98210.41;;;6.27;100.00
70506;BME280;58032;49.820;6.274;2024-03-07T01:56:03;98213.16;;;6.30;100.00
70506;BME280;58032;49.820;6.274;2024-03-07T01:58:31;98202.38;;;6.29;100.00
70506;BME280;58032;49.820;6.274;2024-03-07T02:00:59;98203.69;;;6.21;100.00
70506;BME280;58032;49.820;6.274;2024-03-07T02:03:26;98201.72;;;6.17;100.00
70506;BME280;58032;49.820;6.274;2024-03-07T02:05:54;98196.69;;;6.40;100.00
70506;BME280;58032;49.820;6.274;2024-03-07T02:08:21;98200.66;;;6.04;100.00
70506;BME280;58032;49.820;6.274;2024-03-07T02:10:48;98192.16;;;6.15;100.00
70506;BME280;58032;49.820;6.274;2024-03-07T02:13:16;98189.94;;;5.92;100.00
70506;BME280;58032;49.820;6.274;2024-03-07T02:15:43;98189.34;;;6.15;100.00
70506;BME280;58032;49.820;6.274;2024-03-07T02:18:10;98191.06;;;6.05;100.00
70506;BME280;58032;49.820;6.274;2024-03-07T02:20:37;98184.31;;;5.99;100.00
70506;BME280;58032;49.820;6.274;2024-03-07T02:23:04;98180.84;;;6.26;100.00
70506;BME280;58032;49.820;6.274;2024-03-07T02:25:32;98179.28;;;5.79;100.00
70506;BME280;58032;49.820;6.274;2024-03-07T02:27:59;98184.25;;;6.02;100.00
70506;BME280;58032;49.820;6.274;2024-03-07T02:30:26;98179.81;;;6.12;100.00
70506;BME280;58032;49.820;6.274;2024-03-07T02:32:53;98172.06;;;5.82;100.00
70506;BME280;58032;49.820;6.274;2024-03-07T02:35:21;98178.00;;;5.88;100.00
70506;BME280;58032;49.820;6.274;2024-03-07T02:37:50;98180.47;;;5.78;100.00
70506;BME280;58032;49.820;6.274;2024-03-07T02:40:17;98180.63;;;6.09;100.00
70506;BME280;58032;49.820;6.274;2024-03-07T02:42:44;98176.91;;;6.23;100.00
70506;BME280;58032;49.820;6.274;2024-03-07T02:45:11;98173.09;;;6.02;100.00
70506;BME280;58032;49.820;6.274;2024-03-07T02:47:41;98177.19;;;5.87;100.00
70506;BME280;58032;49.820;6.274;2024-03-07T02:50:10;98173.19;;;5.88;100.00
70506;BME280;58032;49.820;6.274;2024-03-07T02:52:38;98176.78;;;5.89;100.00
70506;BME280;58032;49.820;6.274;2024-03-07T02:55:06;98173.94;;;5.99;100.00
70506;BME280;58032;49.820;6.274;2024-03-07T02:57:37;98174.81;;;5.85;100.00
70506;BME280;58032;49.820;6.274;2024-03-07T03:00:04;98165.38;;;5.72;100.00
70506;BME280;58032;49.820;6.274;2024-03-07T03:02:40;98171.88;;;6.04;100.00
70506;BME280;58032;49.820;6.274;2024-03-07T03:05:08;98165.91;;;6.01;100.00
70506;BME280;58032;49.820;6.274;2024-03-07T03:07:36;98166.88;;;5.80;100.00
70506;BME280;58032;49.820;6.274;2024-03-07T03:10:04;98166.84;;;5.84;100.00
70506;BME280;58032;49.820;6.274;2024-03-07T03:12:37;98156.69;;;5.59;100.00
70506;BME280;58032;49.820;6.274;2024-03-07T03:15:06;98162.63;;;5.65;100.00
70506;BME280;58032;49.820;6.274;2024-03-07T03:17:34;98156.69;;;5.59;100.00
70506;BME280;58032;49.820;6.274;2024-03-07T03:20:02;98155.66;;;5.38;100.00
70506;BME280;58032;49.820;6.274;2024-03-07T03:22:36;98149.59;;;5.47;100.00
70506;BME280;58032;49.820;6.274;2024-03-07T03:25:04;98148.44;;;5.41;100.00
70506;BME280;58032;49.820;6.274;2024-03-07T03:27:31;98152.94;;;5.28;100.00
70506;BME280;58032;49.820;6.274;2024-03-07T03:29:59;98148.63;;;5.19;100.00
70506;BME280;58032;49.820;6.274;2024-03-07T03:32:27;67390.78;;;-149.55;100.00
70506;BME280;58032;49.820;6.274;2024-03-07T03:34:54;67390.78;;;-149.55;100.00
70506;BME280;58032;49.820;6.274;2024-03-07T03:37:21;67390.78;;;-149.55;100.00
70506;BME280;58032;49.820;6.274;2024-03-07T03:39:48;67390.78;;;-149.55;100.00
70506;BME280;58032;49.820;6.274;2024-03-07T03:42:16;67390.78;;;-149.55;100.00
70506;BME280;58032;49.820;6.274;2024-03-07T03:44:43;67390.78;;;-149.55;100.00
70506;BME280;58032;49.820;6.274;2024-03-07T03:47:11;67390.78;;;-149.55;100.00
70506;BME280;58032;49.820;6.274;2024-03-07T03:49:38;67390.78;;;-149.55;100.00
70506;BME280;58032;49.820;6.274;2024-03-07T03:52:05;67390.78;;;-149.55;100.00
70506;BME280;58032;49.820;6.274;2024-03-07T03:54:32;67390.78;;;-149.55;100.00
70506;BME280;58032;49.820;6.274;2024-03-07T03:56:59;67390.78;;;-149.55;100.00
70506;BME280;58032;49.820;6.274;2024-03-07T03:59:26;98147.06;;;5.11;100.00
70506;BME280;58032;49.820;6.274;2024-03-07T04:01:54;98155.41;;;4.30;100.00
70506;BME280;58032;49.820;6.274;2024-03-07T04:04:21;98149.06;;;4.25;100.00
70506;BME280;58032;49.820;6.274;2024-03-07T04:06:48;98147.78;;;4.48;100.00
70506;BME280;58032;49.820;6.274;2024-03-07T04:09:15;98147.38;;;4.46;100.00
70506;BME280;58032;49.820;6.274;2024-03-07T04:11:45;98145.88;;;4.23;100.00
70506;BME280;58032;49.820;6.274;2024-03-07T04:14:12;98151.03;;;4.32;100.00
70506;BME280;58032;49.820;6.274;2024-03-07T04:16:39;98142.66;;;4.36;100.00
70506;BME280;58032;49.820;6.274;2024-03-07T04:19:06;98137.81;;;4.54;100.00
70506;BME280;58032;49.820;6.274;2024-03-07T04:21:35;98131.97;;;4.12;100.00
70506;BME280;58032;49.820;6.274;2024-03-07T04:24:04;98134.34;;;4.21;100.00
70506;BME280;58032;49.820;6.274;2024-03-07T04:26:31;98135.91;;;4.26;100.00
70506;BME280;58032;49.820;6.274;2024-03-07T04:28:58;98133.50;;;4.35;100.00
70506;BME280;58032;49.820;6.274;2024-03-07T04:31:25;98132.78;;;4.17;100.00
70506;BME280;58032;49.820;6.274;2024-03-07T04:33:53;98132.81;;;4.09;100.00
70506;BME280;58032;49.820;6.274;2024-03-07T04:36:20;98128.75;;;4.32;100.00
70506;BME280;58032;49.820;6.274;2024-03-07T04:38:47;98127.19;;;4.20;100.00
70506;BME280;58032;49.820;6.274;2024-03-07T04:41:14;98124.44;;;4.06;100.00
70506;BME280;58032;49.820;6.274;2024-03-07T04:43:44;98130.81;;;3.99;100.00
70506;BME280;58032;49.820;6.274;2024-03-07T04:46:11;98125.63;;;4.08;100.00
70506;BME280;58032;49.820;6.274;2024-03-07T04:48:38;98120.84;;;4.09;100.00
70506;BME280;58032;49.820;6.274;2024-03-07T04:51:06;98121.31;;;3.89;100.00
70506;BME280;58032;49.820;6.274;2024-03-07T04:53:33;98122.03;;;4.04;100.00
70506;BME280;58032;49.820;6.274;2024-03-07T04:56:00;98122.03;;;4.08;100.00
70506;BME280;58032;49.820;6.274;2024-03-07T04:58:27;98112.16;;;3.74;100.00
70506;BME280;58032;49.820;6.274;2024-03-07T05:00:54;98114.56;;;3.65;100.00
70506;BME280;58032;49.820;6.274;2024-03-07T05:03:21;98114.97;;;3.71;100.00
70506;BME280;58032;49.820;6.274;2024-03-07T05:05:50;98117.34;;;3.69;100.00
70506;BME280;58032;49.820;6.274;2024-03-07T05:08:17;98115.75;;;3.75;100.00
70506;BME280;58032;49.820;6.274;2024-03-07T05:10:44;98114.53;;;3.79;100.00
70506;BME280;58032;49.820;6.274;2024-03-07T05:13:11;98109.81;;;3.58;100.00
70506;BME280;58032;49.820;6.274;2024-03-07T05:15:38;98107.81;;;3.59;100.00
70506;BME280;58032;49.820;6.274;2024-03-07T05:18:06;98110.97;;;3.72;100.00
70506;BME280;58032;49.820;6.274;2024-03-07T05:20:33;98111.34;;;3.95;100.00
70506;BME280;58032;49.820;6.274;2024-03-07T05:23:01;98108.19;;;3.68;100.00
70506;BME280;58032;49.820;6.274;2024-03-07T05:25:30;98107.78;;;3.73;100.00
70506;BME280;58032;49.820;6.274;2024-03-07T05:27:57;98101.03;;;3.67;100.00
70506;BME280;58032;49.820;6.274;2024-03-07T05:30:25;98106.94;;;3.94;100.00
70506;BME280;58032;49.820;6.274;2024-03-07T05:32:52;98103.03;;;3.70;100.00
70506;BME280;58032;49.820;6.274;2024-03-07T05:35:20;98102.59;;;3.86;100.00
70506;BME280;58032;49.820;6.274;2024-03-07T05:37:48;98102.56;;;3.97;100.00
70506;BME280;58032;49.820;6.274;2024-03-07T05:40:15;98104.19;;;3.91;100.00
70506;BME280;58032;49.820;6.274;2024-03-07T05:42:43;98099.84;;;3.68;100.00
70506;BME280;58032;49.820;6.274;2024-03-07T05:45:09;98094.66;;;3.74;100.00
70506;BME280;58032;49.820;6.274;2024-03-07T05:47:37;98093.84;;;3.84;100.00
70506;BME280;58032;49.820;6.274;2024-03-07T05:50:05;98093.88;;;3.70;100.00
70506;BME280;58032;49.820;6.274;2024-03-07T05:52:34;98098.59;;;3.94;100.00
70506;BME280;58032;49.820;6.274;2024-03-07T05:55:03;98092.69;;;3.63;100.00
70506;BME280;58032;49.820;6.274;2024-03-07T05:57:31;98085.16;;;3.46;100.00
70506;BME280;58032;49.820;6.274;2024-03-07T05:59:58;98089.44;;;3.94;100.00
70506;BME280;58032;49.820;6.274;2024-03-07T06:02:25;98095.50;;;3.38;100.00
70506;BME280;58032;49.820;6.274;2024-03-07T06:04:52;98082.75;;;3.55;100.00
70506;BME280;58032;49.820;6.274;2024-03-07T06:07:19;98087.84;;;3.93;100.00
70506;BME280;58032;49.820;6.274;2024-03-07T06:09:48;98097.00;;;3.90;100.00
70506;BME280;58032;49.820;6.274;2024-03-07T06:12:15;98093.78;;;3.99;100.00
70506;BME280;58032;49.820;6.274;2024-03-07T06:14:45;98090.72;;;3.68;100.00
70506;BME280;58032;49.820;6.274;2024-03-07T06:17:12;98092.69;;;3.60;100.00
70506;BME280;58032;49.820;6.274;2024-03-07T06:19:39;98094.69;;;3.67;100.00
70506;BME280;58032;49.820;6.274;2024-03-07T06:22:06;98093.47;;;3.64;100.00
70506;BME280;58032;49.820;6.274;2024-03-07T06:24:35;98093.13;;;3.51;100.00
70506;BME280;58032;49.820;6.274;2024-03-07T06:27:04;98091.09;;;3.70;100.00
70506;BME280;58032;49.820;6.274;2024-03-07T06:29:36;98093.84;;;3.73;100.00
70506;BME280;58032;49.820;6.274;2024-03-07T06:32:03;98102.56;;;3.93;100.00
70506;BME280;58032;49.820;6.274;2024-03-07T06:34:30;98097.09;;;3.50;100.00
70506;BME280;58032;49.820;6.274;2024-03-07T06:36:57;98099.47;;;3.55;100.00
70506;BME280;58032;49.820;6.274;2024-03-07T06:39:24;98101.84;;;3.68;100.00
70506;BME280;58032;49.820;6.274;2024-03-07T06:41:52;98097.09;;;3.50;100.00
70506;BME280;58032;49.820;6.274;2024-03-07T06:44:19;98101.06;;;3.60;100.00
70506;BME280;58032;49.820;6.274;2024-03-07T06:46:50;98105.41;;;3.64;100.00
70506;BME280;58032;49.820;6.274;2024-03-07T06:49:17;98102.25;;;3.48;100.00
70506;BME280;58032;49.820;6.274;2024-03-07T06:51:44;98097.03;;;3.83;100.00
70506;BME280;58032;49.820;6.274;2024-03-07T06:54:11;98093.78;;;4.06;100.00
70506;BME280;58032;49.820;6.274;2024-03-07T06:56:39;98096.69;;;3.55;100.00
70506;BME280;58032;49.820;6.274;2024-03-07T06:59:09;98095.88;;;3.58;100.00
70506;BME280;58032;49.820;6.274;2024-03-07T07:01:36;98094.69;;;3.70;100.00
70506;BME280;58032;49.820;6.274;2024-03-07T07:04:04;98095.84;;;3.84;100.00
70506;BME280;58032;49.820;6.274;2024-03-07T07:06:31;98094.28;;;3.72;100.00
70506;BME280;58032;49.820;6.274;2024-03-07T07:08:58;98091.50;;;3.68;100.00
70506;BME280;58032;49.820;6.274;2024-03-07T07:11:25;98094.66;;;3.74;100.00
70506;BME280;58032;49.820;6.274;2024-03-07T07:13:55;98091.84;;;3.85;100.00
70506;BME280;58032;49.820;6.274;2024-03-07T07:16:22;98089.09;;;3.81;100.00
70506;BME280;58032;49.820;6.274;2024-03-07T07:18:50;98090.59;;;4.07;100.00
70506;BME280;58032;49.820;6.274;2024-03-07T07:21:19;98100.53;;;4.12;100.00
70506;BME280;58032;49.820;6.274;2024-03-07T07:23:46;98100.22;;;3.88;100.00
70506;BME280;58032;49.820;6.274;2024-03-07T07:26:13;98103.00;;;3.88;100.00
70506;BME280;58032;49.820;6.274;2024-03-07T07:28:41;98106.56;;;3.89;100.00
70506;BME280;58032;49.820;6.274;2024-03-07T07:31:08;98097.28;;;4.32;100.00
70506;BME280;58032;49.820;6.274;2024-03-07T07:33:36;98096.16;;;4.15;100.00
70506;BME280;58032;49.820;6.274;2024-03-07T07:36:03;98093.69;;;4.31;100.00
70506;BME280;58032;49.820;6.274;2024-03-07T07:38:30;98101.72;;;4.11;100.00
70506;BME280;58032;49.820;6.274;2024-03-07T07:40:58;98101.72;;;4.11;100.00
70506;BME280;58032;49.820;6.274;2024-03-07T07:43:25;98101.72;;;4.11;100.00
70506;BME280;58032;49.820;6.274;2024-03-07T07:45:54;98097.38;;;4.84;100.00
70506;BME280;58032;49.820;6.274;2024-03-07T07:48:22;98101.47;;;4.69;100.00
70506;BME280;58032;49.820;6.274;2024-03-07T07:50:49;98101.53;;;4.54;100.00
70506;BME280;58032;49.820;6.274;2024-03-07T07:53:18;98104.25;;;4.69;100.00
70506;BME280;58032;49.820;6.274;2024-03-07T07:55:46;98093.44;;;4.78;100.00
70506;BME280;58032;49.820;6.274;2024-03-07T07:58:15;98097.88;;;4.72;100.00
70506;BME280;58032;49.820;6.274;2024-03-07T08:00:43;98093.53;;;4.64;100.00
70506;BME280;58032;49.820;6.274;2024-03-07T08:03:11;98087.38;;;4.90;100.00
70506;BME280;58032;49.820;6.274;2024-03-07T08:05:39;98090.22;;;5.39;100.00
70506;BME280;58032;49.820;6.274;2024-03-07T08:08:07;98082.19;;;4.93;100.00
70506;BME280;58032;49.820;6.274;2024-03-07T08:10:36;98087.09;;;4.74;100.00
70506;BME280;58032;49.820;6.274;2024-03-07T08:13:04;98082.34;;;4.67;100.00
70506;BME280;58032;49.820;6.274;2024-03-07T08:15:40;98076.06;;;4.49;100.00
70506;BME280;58032;49.820;6.274;2024-03-07T08:18:07;98076.03;;;4.59;100.00
70506;BME280;58032;49.820;6.274;2024-03-07T08:20:38;98071.72;;;4.48;100.00
70506;BME280;58032;49.820;6.274;2024-03-07T08:23:05;98068.97;;;4.37;100.00
70506;BME280;58032;49.820;6.274;2024-03-07T08:25:33;98068.97;;;4.37;100.00
70506;BME280;58032;49.820;6.274;2024-03-07T08:28:00;98069.28;;;5.17;100.00
70506;BME280;58032;49.820;6.274;2024-03-07T08:30:28;98069.00;;;5.00;100.00
70506;BME280;58032;49.820;6.274;2024-03-07T08:32:56;98069.44;;;5.82;100.00
70506;BME280;58032;49.820;6.274;2024-03-07T08:35:24;98065.13;;;6.16;100.00
70506;BME280;58032;49.820;6.274;2024-03-07T08:37:52;98061.50;;;5.77;100.00
70506;BME280;58032;49.820;6.274;2024-03-07T08:40:27;98057.00;;;6.25;100.00
70506;BME280;58032;49.820;6.274;2024-03-07T08:43:00;98049.56;;;6.15;100.00
70506;BME280;58032;49.820;6.274;2024-03-07T08:45:28;98047.78;;;5.94;100.00
70506;BME280;58032;49.820;6.274;2024-03-07T08:47:56;98044.84;;;6.08;100.00
70506;BME280;58032;49.820;6.274;2024-03-07T08:50:24;98031.97;;;6.14;100.00
70506;BME280;58032;49.820;6.274;2024-03-07T08:52:54;98034.47;;;6.36;100.00
70506;BME280;58032;49.820;6.274;2024-03-07T08:55:25;98031.97;;;6.45;100.00
70506;BME280;58032;49.820;6.274;2024-03-07T08:57:52;98033.50;;;6.19;100.00
70506;BME280;58032;49.820;6.274;2024-03-07T09:00:19;98033.31;;;6.02;100.00
70506;BME280;58032;49.820;6.274;2024-03-07T09:02:55;98034.47;;;6.67;100.00
70506;BME280;58032;49.820;6.274;2024-03-07T09:05:26;98029.66;;;6.40;100.00
70506;BME280;58032;49.820;6.274;2024-03-07T09:07:54;98027.28;;;6.08;100.00
70506;BME280;58032;49.820;6.274;2024-03-07T09:10:21;98032.16;;;5.96;100.00
70506;BME280;58032;49.820;6.274;2024-03-07T09:12:51;98025.78;;;6.30;100.00
70506;BME280;58032;49.820;6.274;2024-03-07T09:15:19;67390.78;;;-149.55;100.00
70506;BME280;58032;49.820;6.274;2024-03-07T09:17:48;67390.78;;;-149.55;100.00
70506;BME280;58032;49.820;6.274;2024-03-07T09:20:16;67390.78;;;-149.55;100.00
70506;BME280;58032;49.820;6.274;2024-03-07T09:22:44;67390.78;;;-149.55;100.00
70506;BME280;58032;49.820;6.274;2024-03-07T09:25:11;67390.78;;;-149.55;100.00
70506;BME280;58032;49.820;6.274;2024-03-07T09:27:40;67390.78;;;-149.55;100.00
70506;BME280;58032;49.820;6.274;2024-03-07T09:30:08;67390.78;;;-149.55;100.00
70506;BME280;58032;49.820;6.274;2024-03-07T09:32:39;67390.78;;;-149.55;100.00
70506;BME280;58032;49.820;6.274;2024-03-07T09:35:08;67390.78;;;-149.55;100.00
70506;BME280;58032;49.820;6.274;2024-03-07T09:37:43;67390.78;;;-149.55;100.00
70506;BME280;58032;49.820;6.274;2024-03-07T09:40:11;67390.78;;;-149.55;100.00
70506;BME280;58032;49.820;6.274;2024-03-07T09:42:48;67390.78;;;-149.55;100.00
70506;BME280;58032;49.820;6.274;2024-03-07T09:45:17;67390.78;;;-149.55;100.00
70506;BME280;58032;49.820;6.274;2024-03-07T09:47:46;67390.78;;;-149.55;100.00
70506;BME280;58032;49.820;6.274;2024-03-07T09:50:16;67390.78;;;-149.55;100.00
70506;BME280;58032;49.820;6.274;2024-03-07T09:52:46;67390.78;;;-149.55;100.00
70506;BME280;58032;49.820;6.274;2024-03-07T09:55:17;67390.78;;;-149.55;100.00
70506;BME280;58032;49.820;6.274;2024-03-07T09:57:46;67390.78;;;-149.55;100.00
70506;BME280;58032;49.820;6.274;2024-03-07T10:00:16;67390.78;;;-149.55;100.00
70506;BME280;58032;49.820;6.274;2024-03-07T10:02:56;67390.78;;;-149.55;100.00
70506;BME280;58032;49.820;6.274;2024-03-07T10:05:26;67390.78;;;-149.55;100.00
70506;BME280;58032;49.820;6.274;2024-03-07T10:07:54;67390.78;;;-149.55;100.00
70506;BME280;58032;49.820;6.274;2024-03-07T10:10:21;67390.78;;;-149.55;100.00
70506;BME280;58032;49.820;6.274;2024-03-07T10:12:49;67390.78;;;-149.55;100.00
70506;BME280;58032;49.820;6.274;2024-03-07T10:15:17;67390.78;;;-149.55;100.00
70506;BME280;58032;49.820;6.274;2024-03-07T10:17:44;98023.09;;;5.89;100.00
70506;BME280;58032;49.820;6.274;2024-03-07T10:20:18;97964.84;;;7.64;79.48
70506;BME280;58032;49.820;6.274;2024-03-07T10:22:49;97962.56;;;7.35;78.90
70506;BME280;58032;49.820;6.274;2024-03-07T10:25:22;97957.34;;;7.57;78.99
70506;BME280;58032;49.820;6.274;2024-03-07T10:27:52;97959.16;;;7.88;77.12
70506;BME280;58032;49.820;6.274;2024-03-07T10:30:19;97964.69;;;7.91;77.33
70506;BME280;58032;49.820;6.274;2024-03-07T10:33:07;97964.69;;;7.91;77.33
70506;BME280;58032;49.820;6.274;2024-03-07T10:35:34;97950.91;;;7.81;75.46
70506;BME280;58032;49.820;6.274;2024-03-07T10:38:01;97948.66;;;8.65;74.85
70506;BME280;58032;49.820;6.274;2024-03-07T10:40:34;97955.84;;;8.50;74.64
70506;BME280;58032;49.820;6.274;2024-03-07T10:43:10;97955.97;;;8.06;76.40
70506;BME280;58032;49.820;6.274;2024-03-07T10:45:44;97954.25;;;7.52;76.19
70506;BME280;58032;49.820;6.274;2024-03-07T10:48:19;97944.16;;;8.15;77.19
70506;BME280;58032;49.820;6.274;2024-03-07T10:50:55;97961.13;;;6.79;76.98
70506;BME280;58032;49.820;6.274;2024-03-07T10:59:19;97929.66;;;7.39;74.94
70506;BME280;58032;49.820;6.274;2024-03-07T11:01:58;97936.44;;;7.62;77.09
70506;BME280;58032;49.820;6.274;2024-03-07T11:04:26;97934.28;;;7.50;76.45
70506;BME280;58032;49.820;6.274;2024-03-07T11:06:54;97937.47;;;7.08;75.56
70506;BME280;58032;49.820;6.274;2024-03-07T11:09:23;97945.75;;;6.91;76.33
70506;BME280;58032;49.820;6.274;2024-03-07T11:11:56;97947.59;;;6.98;76.92
70506;BME280;58032;49.820;6.274;2024-03-07T11:14:25;97936.00;;;6.76;76.12
70506;BME280;58032;49.820;6.274;2024-03-07T11:16:53;97951.16;;;7.02;76.22
70506;BME280;58032;49.820;6.274;2024-03-07T11:19:29;97934.19;;;7.33;76.48
70506;BME280;58032;49.820;6.274;2024-03-07T11:21:58;97924.47;;;7.18;75.87
70506;BME280;58032;49.820;6.274;2024-03-07T11:24:30;97914.16;;;7.55;76.04
70506;BME280;58032;49.820;6.274;2024-03-07T11:27:04;97924.66;;;7.51;74.19
70506;BME280;58032;49.820;6.274;2024-03-07T11:29:48;97899.56;;;7.64;73.84
70506;BME280;58032;49.820;6.274;2024-03-07T11:32:19;97924.91;;;6.45;73.32
70506;BME280;58032;49.820;6.274;2024-03-07T11:34:53;97917.94;;;6.80;75.05
70506;BME280;58032;49.820;6.274;2024-03-07T11:37:37;97910.47;;;7.18;75.82
70506;BME280;58032;49.820;6.274;2024-03-07T11:40:08;97916.59;;;7.12;75.95
70506;BME280;58032;49.820;6.274;2024-03-07T11:42:48;97892.41;;;7.42;74.72
70506;BME280;58032;49.820;6.274;2024-03-07T11:45:17;97886.22;;;7.31;73.53
70506;BME280;58032;49.820;6.274;2024-03-07T11:47:57;97883.34;;;7.55;73.20
70506;BME280;58032;49.820;6.274;2024-03-07T11:50:42;97879.69;;;7.58;72.64
70506;BME280;58032;49.820;6.274;2024-03-07T11:53:10;97879.53;;;7.65;72.87
70506;BME280;58032;49.820;6.274;2024-03-07T11:55:38;97876.13;;;7.74;71.96
70506;BME280;58032;49.820;6.274;2024-03-07T11:58:20;97869.78;;;7.33;71.79
70506;BME280;58032;49.820;6.274;2024-03-07T12:00:50;97866.59;;;7.31;71.89
70506;BME280;58032;49.820;6.274;2024-03-07T12:03:19;97874.25;;;6.12;71.93
70506;BME280;58032;49.820;6.274;2024-03-07T12:05:52;97876.78;;;5.71;74.07
70506;BME280;58032;49.820;6.274;2024-03-07T12:08:20;97874.97;;;6.67;75.21
70506;BME280;58032;49.820;6.274;2024-03-07T12:10:50;97868.34;;;6.06;73.78
70506;BME280;58032;49.820;6.274;2024-03-07T12:13:20;97871.94;;;6.81;74.74
70506;BME280;58032;49.820;6.274;2024-03-07T12:15:48;97878.00;;;6.53;74.44
70506;BME280;58032;49.820;6.274;2024-03-07T12:18:19;97884.28;;;6.09;74.64
70506;BME280;58032;49.820;6.274;2024-03-07T12:20:47;97873.63;;;6.00;74.35
70506;BME280;58032;49.820;6.274;2024-03-07T12:23:18;97866.22;;;6.41;74.73
70506;BME280;58032;49.820;6.274;2024-03-07T12:25:46;97887.19;;;6.02;75.55
70506;BME280;58032;49.820;6.274;2024-03-07T12:28:15;97874.06;;;5.64;75.46
70506;BME280;58032;49.820;6.274;2024-03-07T12:33:19;97860.00;;;6.54;76.32
70506;BME280;58032;49.820;6.274;2024-03-07T12:35:47;97859.63;;;6.28;74.81
70506;BME280;58032;49.820;6.274;2024-03-07T12:38:20;97859.34;;;6.46;75.16
70506;BME280;58032;49.820;6.274;2024-03-07T12:41:03;97846.84;;;6.74;74.69
70506;BME280;58032;49.820;6.274;2024-03-07T12:43:35;97854.22;;;6.88;75.01
70506;BME280;58032;49.820;6.274;2024-03-07T12:46:05;97844.28;;;6.84;74.81
70506;BME280;58032;49.820;6.274;2024-03-07T12:48:32;97833.75;;;6.47;74.21
70506;BME280;58032;49.820;6.274;2024-03-07T12:51:01;97825.59;;;7.01;73.98
70506;BME280;58032;49.820;6.274;2024-03-07T12:53:29;97818.50;;;6.96;72.57
70506;BME280;58032;49.820;6.274;2024-03-07T12:55:58;97830.50;;;6.73;71.99
70506;BME280;58032;49.820;6.274;2024-03-07T12:58:25;97817.59;;;6.99;71.29
70506;BME280;58032;49.820;6.274;2024-03-07T13:00:59;97811.44;;;6.88;70.93
70506;BME280;58032;49.820;6.274;2024-03-07T13:03:27;97807.72;;;6.71;71.65
70506;BME280;58032;49.820;6.274;2024-03-07T13:05:57;97803.63;;;7.19;72.37
70506;BME280;58032;49.820;6.274;2024-03-07T13:08:28;97811.72;;;7.13;72.09
70506;BME280;58032;49.820;6.274;2024-03-07T13:10:59;97800.66;;;7.47;70.80
70506;BME280;58032;49.820;6.274;2024-03-07T13:13:31;97797.78;;;8.20;70.48
70506;BME280;58032;49.820;6.274;2024-03-07T13:15:59;97787.25;;;8.24;69.27